sensor_id;sensor_type;location;lat;lon;timestamp;pressure;altitude;pressure_sealevel;temperature;humidity
63006;BME280;53704;52.532;6.426;2022-09-09T00:00:24;100724.28;;;13.29;100.00
63006;BME280;53704;52.532;6.426;2022-09-09T00:03:42;100720.59;;;13.45;100.00
63006;BME280;53704;52.532;6.426;2022-09-09T00:05:54;100716.78;;;13.54;100.00
63006;BME280;53704;52.532;6.426;2022-09-09T00:08:31;100720.69;;;13.52;100.00
63006;BME280;53704;52.532;6.426;2022-09-09T00:11:03;100710.22;;;13.49;100.00
63006;BME280;53704;52.532;6.426;2022-09-09T00:13:46;100713.16;;;13.47;100.00
63006;BME280;53704;52.532;6.426;2022-09-09T00:16:17;100711.81;;;13.58;100.00
63006;BME280;53704;52.532;6.426;2022-09-09T00:21:42;100714.78;;;13.93;100.00
63006;BME280;53704;52.532;6.426;2022-09-09T00:24:14;100717.31;;;13.94;100.00
63006;BME280;53704;52.532;6.426;2022-09-09T00:26:49;100715.03;;;13.62;100.00
63006;BME280;53704;52.532;6.426;2022-09-09T00:31:44;100719.88;;;13.66;100.00
63006;BME280;53704;52.532;6.426;2022-09-09T00:34:21;100715.03;;;13.62;100.00
63006;BME280;53704;52.532;6.426;2022-09-09T00:36:50;100712.38;;;13.53;100.00
63006;BME280;53704;52.532;6.426;2022-09-09T00:39:34;100709.59;;;13.77;100.00
63006;BME280;53704;52.532;6.426;2022-09-09T00:58:14;100713.97;;;13.92;100.00
63006;BME280;53704;52.532;6.426;2022-09-09T01:00:46;100724.25;;;13.82;100.00
63006;BME280;53704;52.532;6.426;2022-09-09T01:11:42;100713.59;;;13.96;100.00
63006;BME280;53704;52.532;6.426;2022-09-09T01:14:47;100714.84;;;14.15;100.00
63006;BME280;53704;52.532;6.426;2022-09-09T01:17:35;100712.91;;;14.08;100.00
63006;BME280;53704;52.532;6.426;2022-09-09T01:20:19;100715.47;;;13.95;100.00
63006;BME280;53704;52.532;6.426;2022-09-09T01:28:12;100709.56;;;14.06;100.00
63006;BME280;53704;52.532;6.426;2022-09-09T01:30:41;100711.25;;;14.07;100.00
63006;BME280;53704;52.532;6.426;2022-09-09T01:33:10;100717.06;;;14.26;100.00
63006;BME280;53704;52.532;6.426;2022-09-09T01:36:08;100716.94;;;14.34;100.00
63006;BME280;53704;52.532;6.426;2022-09-09T01:38:36;100716.66;;;14.44;100.00
63006;BME280;53704;52.532;6.426;2022-09-09T01:41:02;100722.13;;;14.51;100.00
63006;BME280;53704;52.532;6.426;2022-09-09T01:43:28;100712.44;;;14.41;100.00
63006;BME280;53704;52.532;6.426;2022-09-09T01:45:56;100718.69;;;14.42;100.00
63006;BME280;53704;52.532;6.426;2022-09-09T01:48:24;100710.25;;;14.30;100.00
63006;BME280;53704;52.532;6.426;2022-09-09T01:50:50;100720.88;;;14.32;100.00
63006;BME280;53704;52.532;6.426;2022-09-09T01:53:17;100716.75;;;14.36;100.00
63006;BME280;53704;52.532;6.426;2022-09-09T01:58:34;100705.53;;;14.39;100.00
63006;BME280;53704;52.532;6.426;2022-09-09T02:01:27;100703.56;;;14.47;100.00
63006;BME280;53704;52.532;6.426;2022-09-09T02:03:57;100711.16;;;14.59;99.74
63006;BME280;53704;52.532;6.426;2022-09-09T02:06:32;100711.63;;;14.04;100.00
63006;BME280;53704;52.532;6.426;2022-09-09T02:09:01;100721.22;;;14.43;100.00
63006;BME280;53704;52.532;6.426;2022-09-09T02:11:29;100708.56;;;14.29;100.00
63006;BME280;53704;52.532;6.426;2022-09-09T02:14:25;100711.53;;;14.34;100.00
63006;BME280;53704;52.532;6.426;2022-09-09T02:17:01;100715.03;;;14.50;99.62
63006;BME280;53704;52.532;6.426;2022-09-09T02:19:42;100716.44;;;14.24;100.00
63006;BME280;53704;52.532;6.426;2022-09-09T02:22:09;100714.66;;;14.53;99.08
63006;BME280;53704;52.532;6.426;2022-09-09T02:24:37;100711.63;;;14.04;100.00
63006;BME280;53704;52.532;6.426;2022-09-09T02:27:06;100721.16;;;14.37;100.00
63006;BME280;53704;52.532;6.426;2022-09-09T02:29:37;100718.31;;;14.08;100.00
63006;BME280;53704;52.532;6.426;2022-09-09T02:32:06;100720.97;;;14.38;99.98
63006;BME280;53704;52.532;6.426;2022-09-09T02:34:36;100719.06;;;14.17;100.00
63006;BME280;53704;52.532;6.426;2022-09-09T02:37:06;100715.59;;;14.45;99.45
63006;BME280;53704;52.532;6.426;2022-09-09T02:39:33;100713.97;;;14.29;99.64
63006;BME280;53704;52.532;6.426;2022-09-09T02:41:58;100709.16;;;14.46;98.74
63006;BME280;53704;52.532;6.426;2022-09-09T02:44:24;100712.81;;;14.38;98.82
63006;BME280;53704;52.532;6.426;2022-09-09T02:47:08;100714.84;;;14.29;99.53
63006;BME280;53704;52.532;6.426;2022-09-09T02:52:15;100707.00;;;14.20;99.38
63006;BME280;53704;52.532;6.426;2022-09-09T02:54:42;100705.66;;;13.94;100.00
63006;BME280;53704;52.532;6.426;2022-09-09T02:57:16;100711.78;;;14.18;100.00
63006;BME280;53704;52.532;6.426;2022-09-09T02:59:44;100715.28;;;13.97;100.00
63006;BME280;53704;52.532;6.426;2022-09-09T03:02:10;100717.19;;;14.18;100.00
63006;BME280;53704;52.532;6.426;2022-09-09T03:04:37;100710.22;;;13.93;100.00
63006;BME280;53704;52.532;6.426;2022-09-09T03:07:02;100716.31;;;13.81;100.00
63006;BME280;53704;52.532;6.426;2022-09-09T03:09:29;100720.97;;;13.87;100.00
63006;BME280;53704;52.532;6.426;2022-09-09T03:11:54;100709.13;;;13.73;100.00
63006;BME280;53704;52.532;6.426;2022-09-09T03:14:20;100709.78;;;13.90;100.00
63006;BME280;53704;52.532;6.426;2022-09-09T03:16:50;100711.81;;;13.58;100.00
63006;BME280;53704;52.532;6.426;2022-09-09T03:19:15;100714.53;;;13.88;100.00
63006;BME280;53704;52.532;6.426;2022-09-09T03:21:41;100708.25;;;14.02;100.00
63006;BME280;53704;52.532;6.426;2022-09-09T03:24:06;100705.72;;;14.01;100.00
63006;BME280;53704;52.532;6.426;2022-09-09T03:26:32;100703.63;;;13.66;100.00
63006;BME280;53704;52.532;6.426;2022-09-09T03:28:58;100712.19;;;13.85;100.00
63006;BME280;53704;52.532;6.426;2022-09-09T03:31:25;100713.81;;;13.79;100.00
63006;BME280;53704;52.532;6.426;2022-09-09T03:33:51;100709.88;;;13.67;100.00
63006;BME280;53704;52.532;6.426;2022-09-09T03:36:16;100708.19;;;13.66;100.00
63006;BME280;53704;52.532;6.426;2022-09-09T03:38:42;100715.94;;;13.69;100.00
63006;BME280;53704;52.532;6.426;2022-09-09T03:41:07;100714.06;;;13.69;100.00
63006;BME280;53704;52.532;6.426;2022-09-09T03:43:34;100713.16;;;13.62;100.00
63006;BME280;53704;52.532;6.426;2022-09-09T03:45:59;100708.84;;;13.38;100.00
63006;BME280;53704;52.532;6.426;2022-09-09T03:48:26;100709.22;;;13.35;100.00
63006;BME280;53704;52.532;6.426;2022-09-09T03:50:54;100713.69;;;13.57;99.53
63006;BME280;53704;52.532;6.426;2022-09-09T03:53:22;100709.88;;;13.37;100.00
63006;BME280;53704;52.532;6.426;2022-09-09T03:55:50;100709.13;;;13.43;99.73
63006;BME280;53704;52.532;6.426;2022-09-09T03:58:18;100711.97;;;13.27;100.00
63006;BME280;53704;52.532;6.426;2022-09-09T04:01:05;100708.31;;;13.19;100.00
63006;BME280;53704;52.532;6.426;2022-09-09T04:03:31;100710.16;;;13.42;100.00
63006;BME280;53704;52.532;6.426;2022-09-09T04:05:59;100708.31;;;13.43;98.90
63006;BME280;53704;52.532;6.426;2022-09-09T04:08:25;100710.84;;;13.21;99.80
63006;BME280;53704;52.532;6.426;2022-09-09T04:10:51;100712.16;;;13.25;99.70
63006;BME280;53704;52.532;6.426;2022-09-09T04:13:18;100715.28;;;13.14;100.00
63006;BME280;53704;52.532;6.426;2022-09-09T04:15:53;100712.22;;;13.17;99.49
63006;BME280;53704;52.532;6.426;2022-09-09T04:18:19;100704.44;;;13.22;100.00
63006;BME280;53704;52.532;6.426;2022-09-09T04:20:48;100699.94;;;13.29;99.00
63006;BME280;53704;52.532;6.426;2022-09-09T04:23:14;100704.84;;;13.11;98.75
63006;BME280;53704;52.532;6.426;2022-09-09T04:25:49;100711.75;;;12.98;100.00
63006;BME280;53704;52.532;6.426;2022-09-09T04:28:15;100708.91;;;12.92;100.00
63006;BME280;53704;52.532;6.426;2022-09-09T04:30:42;100714.44;;;12.75;100.00
63006;BME280;53704;52.532;6.426;2022-09-09T04:33:07;100713.44;;;12.76;100.00
63006;BME280;53704;52.532;6.426;2022-09-09T04:35:33;100710.78;;;12.91;100.00
63006;BME280;53704;52.532;6.426;2022-09-09T04:37:59;100706.81;;;12.79;100.00
63006;BME280;53704;52.532;6.426;2022-09-09T04:40:24;100710.59;;;12.70;100.00
63006;BME280;53704;52.532;6.426;2022-09-09T04:42:50;100704.03;;;12.87;100.00
63006;BME280;53704;52.532;6.426;2022-09-09T04:45:16;100704.72;;;12.66;100.00
63006;BME280;53704;52.532;6.426;2022-09-09T04:47:42;100706.56;;;12.89;100.00
63006;BME280;53704;52.532;6.426;2022-09-09T04:50:08;100710.91;;;12.75;100.00
63006;BME280;53704;52.532;6.426;2022-09-09T04:52:34;100707.13;;;12.61;100.00
63006;BME280;53704;52.532;6.426;2022-09-09T04:55:01;100704.47;;;12.76;100.00
63006;BME280;53704;52.532;6.426;2022-09-09T04:57:26;100705.44;;;12.60;100.00
63006;BME280;53704;52.532;6.426;2022-09-09T04:59:51;100705.34;;;12.53;100.00
63006;BME280;53704;52.532;6.426;2022-09-09T05:02:17;100703.09;;;12.57;100.00
63006;BME280;53704;52.532;6.426;2022-09-09T05:04:43;100695.59;;;12.44;100.00
63006;BME280;53704;52.532;6.426;2022-09-09T05:07:08;100702.88;;;12.43;100.00
63006;BME280;53704;52.532;6.426;2022-09-09T05:09:34;100712.28;;;12.47;100.00
63006;BME280;53704;52.532;6.426;2022-09-09T05:11:59;100715.06;;;12.62;100.00
63006;BME280;53704;52.532;6.426;2022-09-09T05:14:25;100710.25;;;12.73;100.00
63006;BME280;53704;52.532;6.426;2022-09-09T05:16:50;100705.69;;;12.73;100.00
63006;BME280;53704;52.532;6.426;2022-09-09T05:19:16;100700.13;;;12.75;100.00
63006;BME280;53704;52.532;6.426;2022-09-09T05:21:44;100702.28;;;12.79;100.00
63006;BME280;53704;52.532;6.426;2022-09-09T05:24:10;100710.19;;;12.81;100.00
63006;BME280;53704;52.532;6.426;2022-09-09T05:26:36;100706.38;;;12.90;100.00
63006;BME280;53704;52.532;6.426;2022-09-09T05:29:01;100703.03;;;12.88;100.00
63006;BME280;53704;52.532;6.426;2022-09-09T05:31:29;100701.78;;;12.76;100.00
63006;BME280;53704;52.532;6.426;2022-09-09T05:33:55;100699.59;;;12.94;100.00
63006;BME280;53704;52.532;6.426;2022-09-09T05:36:21;100699.13;;;12.91;100.00
63006;BME280;53704;52.532;6.426;2022-09-09T05:38:48;100701.16;;;12.89;100.00
63006;BME280;53704;52.532;6.426;2022-09-09T05:41:14;100702.91;;;13.05;100.00
63006;BME280;53704;52.532;6.426;2022-09-09T05:43:41;100689.94;;;13.00;100.00
63006;BME280;53704;52.532;6.426;2022-09-09T05:46:12;100698.16;;;13.07;100.00
63006;BME280;53704;52.532;6.426;2022-09-09T05:48:42;100686.34;;;13.23;100.00
63006;BME280;53704;52.532;6.426;2022-09-09T05:51:10;100690.53;;;13.25;100.00
63006;BME280;53704;52.532;6.426;2022-09-09T05:53:38;100691.69;;;13.08;100.00
63006;BME280;53704;52.532;6.426;2022-09-09T05:56:04;100693.25;;;13.25;100.00
63006;BME280;53704;52.532;6.426;2022-09-09T05:58:31;100685.13;;;13.25;100.00
63006;BME280;53704;52.532;6.426;2022-09-09T06:01:08;100685.50;;;13.22;100.00
63006;BME280;53704;52.532;6.426;2022-09-09T06:03:34;100690.16;;;13.28;100.00
63006;BME280;53704;52.532;6.426;2022-09-09T06:06:02;100694.00;;;13.34;100.00
63006;BME280;53704;52.532;6.426;2022-09-09T06:08:30;100690.16;;;13.28;100.00
63006;BME280;53704;52.532;6.426;2022-09-09T06:11:01;100700.25;;;13.34;100.00
63006;BME280;53704;52.532;6.426;2022-09-09T06:13:28;100702.53;;;13.46;100.00
63006;BME280;53704;52.532;6.426;2022-09-09T06:15:53;100689.06;;;13.37;100.00
63006;BME280;53704;52.532;6.426;2022-09-09T06:18:19;100695.34;;;13.38;100.00
63006;BME280;53704;52.532;6.426;2022-09-09T06:20:57;100703.25;;;13.39;100.00
63006;BME280;53704;52.532;6.426;2022-09-09T06:23:24;100706.44;;;13.43;100.00
63006;BME280;53704;52.532;6.426;2022-09-09T06:25:49;100702.13;;;13.64;100.00
63006;BME280;53704;52.532;6.426;2022-09-09T06:28:16;100706.34;;;13.66;100.00
63006;BME280;53704;52.532;6.426;2022-09-09T06:30:42;100713.41;;;13.67;100.00
63006;BME280;53704;52.532;6.426;2022-09-09T06:33:08;100703.69;;;13.88;100.00
63006;BME280;53704;52.532;6.426;2022-09-09T06:35:34;100700.44;;;13.92;100.00
63006;BME280;53704;52.532;6.426;2022-09-09T06:38:00;100716.47;;;13.94;100.00
63006;BME280;53704;52.532;6.426;2022-09-09T06:40:25;100710.75;;;14.04;100.00
63006;BME280;53704;52.532;6.426;2022-09-09T06:42:51;100704.44;;;13.97;100.00
63006;BME280;53704;52.532;6.426;2022-09-09T06:45:16;100698.53;;;13.93;100.00
63006;BME280;53704;52.532;6.426;2022-09-09T06:47:43;100702.63;;;14.19;100.00
63006;BME280;53704;52.532;6.426;2022-09-09T06:50:08;100701.69;;;14.11;100.00
63006;BME280;53704;52.532;6.426;2022-09-09T06:52:36;100699.59;;;14.28;100.00
63006;BME280;53704;52.532;6.426;2022-09-09T06:55:02;100697.59;;;14.37;100.00
63006;BME280;53704;52.532;6.426;2022-09-09T06:57:28;100693.38;;;14.28;100.00
63006;BME280;53704;52.532;6.426;2022-09-09T06:59:53;100700.50;;;14.36;100.00
63006;BME280;53704;52.532;6.426;2022-09-09T07:02:19;100700.41;;;14.44;100.00
63006;BME280;53704;52.532;6.426;2022-09-09T07:04:44;100692.09;;;14.45;100.00
63006;BME280;53704;52.532;6.426;2022-09-09T07:07:09;100701.47;;;14.50;100.00
63006;BME280;53704;52.532;6.426;2022-09-09T07:09:37;100696.06;;;14.50;100.00
63006;BME280;53704;52.532;6.426;2022-09-09T07:12:03;100696.56;;;14.75;100.00
63006;BME280;53704;52.532;6.426;2022-09-09T07:14:30;100688.59;;;14.95;100.00
63006;BME280;53704;52.532;6.426;2022-09-09T07:16:56;100690.00;;;14.91;100.00
63006;BME280;53704;52.532;6.426;2022-09-09T07:19:22;100697.03;;;15.07;100.00
63006;BME280;53704;52.532;6.426;2022-09-09T07:21:47;100696.19;;;15.06;99.90
63006;BME280;53704;52.532;6.426;2022-09-09T07:24:13;100703.19;;;15.22;100.00
63006;BME280;53704;52.532;6.426;2022-09-09T07:26:39;100697.13;;;15.20;100.00
63006;BME280;53704;52.532;6.426;2022-09-09T07:29:05;100696.59;;;15.31;99.21
63006;BME280;53704;52.532;6.426;2022-09-09T07:31:32;100688.78;;;15.50;99.14
63006;BME280;53704;52.532;6.426;2022-09-09T07:33:59;100694.88;;;15.59;98.87
63006;BME280;53704;52.532;6.426;2022-09-09T07:36:30;100690.63;;;15.49;98.22
63006;BME280;53704;52.532;6.426;2022-09-09T07:38:58;100696.13;;;15.56;96.94
63006;BME280;53704;52.532;6.426;2022-09-09T07:41:27;100693.81;;;15.53;97.75
63006;BME280;53704;52.532;6.426;2022-09-09T07:43:53;100696.94;;;15.56;98.13
63006;BME280;53704;52.532;6.426;2022-09-09T07:46:20;100701.13;;;15.59;96.93
63006;BME280;53704;52.532;6.426;2022-09-09T07:48:49;100700.78;;;15.69;96.75
63006;BME280;53704;52.532;6.426;2022-09-09T07:51:17;100707.06;;;15.76;95.13
63006;BME280;53704;52.532;6.426;2022-09-09T07:53:45;100694.38;;;15.77;94.50
63006;BME280;53704;52.532;6.426;2022-09-09T07:56:13;100702.19;;;16.00;94.92
63006;BME280;53704;52.532;6.426;2022-09-09T07:58:40;100701.00;;;16.16;94.23
63006;BME280;53704;52.532;6.426;2022-09-09T08:01:10;100696.59;;;16.08;93.40
63006;BME280;53704;52.532;6.426;2022-09-09T08:03:37;100684.84;;;15.94;93.66
63006;BME280;53704;52.532;6.426;2022-09-09T08:06:05;100689.00;;;15.90;93.79
63006;BME280;53704;52.532;6.426;2022-09-09T08:08:32;100687.59;;;16.07;92.87
63006;BME280;53704;52.532;6.426;2022-09-09T08:11:05;100694.75;;;16.15;92.84
63006;BME280;53704;52.532;6.426;2022-09-09T08:13:33;100699.94;;;16.10;92.56
63006;BME280;53704;52.532;6.426;2022-09-09T08:16:14;100704.16;;;16.19;92.06
63006;BME280;53704;52.532;6.426;2022-09-09T08:18:40;100703.78;;;16.29;91.90
63006;BME280;53704;52.532;6.426;2022-09-09T08:21:17;100702.97;;;16.42;93.08
63006;BME280;53704;52.532;6.426;2022-09-09T08:23:44;100703.78;;;16.49;91.05
63006;BME280;53704;52.532;6.426;2022-09-09T08:26:16;100704.59;;;16.30;89.81
63006;BME280;53704;52.532;6.426;2022-09-09T08:28:42;100701.47;;;16.33;89.71
63006;BME280;53704;52.532;6.426;2022-09-09T08:31:11;100711.72;;;16.31;91.47
63006;BME280;53704;52.532;6.426;2022-09-09T08:33:37;100717.59;;;16.48;91.49
63006;BME280;53704;52.532;6.426;2022-09-09T08:36:04;100708.59;;;16.34;91.11
63006;BME280;53704;52.532;6.426;2022-09-09T08:38:30;100716.75;;;16.40;92.60
63006;BME280;53704;52.532;6.426;2022-09-09T08:41:07;100710.66;;;16.32;90.77
63006;BME280;53704;52.532;6.426;2022-09-09T08:43:34;100719.69;;;16.39;91.10
63006;BME280;53704;52.532;6.426;2022-09-09T08:49:16;100733.53;;;16.64;89.62
63006;BME280;53704;52.532;6.426;2022-09-09T08:51:45;100723.50;;;16.71;86.92
63006;BME280;53704;52.532;6.426;2022-09-09T08:54:11;100722.03;;;16.82;85.24
63006;BME280;53704;52.532;6.426;2022-09-09T08:56:36;100715.59;;;16.96;84.52
63006;BME280;53704;52.532;6.426;2022-09-09T08:59:02;100714.56;;;16.91;84.82
63006;BME280;53704;52.532;6.426;2022-09-09T09:12:27;100727.44;;;16.55;84.91
63006;BME280;53704;52.532;6.426;2022-09-09T09:14:54;100732.91;;;16.82;86.27
63006;BME280;53704;52.532;6.426;2022-09-09T09:17:25;100736.72;;;16.94;85.00
63006;BME280;53704;52.532;6.426;2022-09-09T09:19:52;100726.50;;;17.10;84.49
63006;BME280;53704;52.532;6.426;2022-09-09T09:22:51;100721.88;;;17.10;83.40
63006;BME280;53704;52.532;6.426;2022-09-09T09:25:25;100725.00;;;17.34;86.16
63006;BME280;53704;52.532;6.426;2022-09-09T09:28:02;100721.84;;;17.37;85.22
63006;BME280;53704;52.532;6.426;2022-09-09T09:35:51;100721.19;;;17.68;83.28
63006;BME280;53704;52.532;6.426;2022-09-09T09:38:22;100719.03;;;17.77;80.66
63006;BME280;53704;52.532;6.426;2022-09-09T09:40:52;100720.00;;;18.10;80.51
63006;BME280;53704;52.532;6.426;2022-09-09T09:43:30;100716.31;;;17.77;78.80
63006;BME280;53704;52.532;6.426;2022-09-09T09:45:56;100719.50;;;18.26;79.66
63006;BME280;53704;52.532;6.426;2022-09-09T09:48:23;100725.16;;;18.31;79.43
63006;BME280;53704;52.532;6.426;2022-09-09T09:50:51;100716.19;;;18.24;78.42
63006;BME280;53704;52.532;6.426;2022-09-09T09:55:59;100722.63;;;18.68;77.48
63006;BME280;53704;52.532;6.426;2022-09-09T09:58:27;100721.91;;;18.48;75.51
63006;BME280;53704;52.532;6.426;2022-09-09T10:00:57;100726.59;;;18.72;76.99
63006;BME280;53704;52.532;6.426;2022-09-09T10:03:30;100720.94;;;18.67;76.18
63006;BME280;53704;52.532;6.426;2022-09-09T10:05:56;100728.34;;;18.60;74.53
63006;BME280;53704;52.532;6.426;2022-09-09T10:08:27;100721.53;;;18.76;76.40
63006;BME280;53704;52.532;6.426;2022-09-09T10:11:05;100721.03;;;18.54;76.11
63006;BME280;53704;52.532;6.426;2022-09-09T10:13:56;100729.28;;;18.40;77.06
63006;BME280;53704;52.532;6.426;2022-09-09T10:19:34;100738.59;;;18.26;75.04
63006;BME280;53704;52.532;6.426;2022-09-09T10:27:30;100727.38;;;18.79;75.72
63006;BME280;53704;52.532;6.426;2022-09-09T10:41:05;100728.16;;;18.16;75.12
63006;BME280;53704;52.532;6.426;2022-09-09T11:00:04;100718.03;;;18.30;75.27
63006;BME280;53704;52.532;6.426;2022-09-09T11:02:33;100729.38;;;18.59;74.37
63006;BME280;53704;52.532;6.426;2022-09-09T11:05:03;100725.19;;;18.63;73.09
63006;BME280;53704;52.532;6.426;2022-09-09T11:07:41;100714.16;;;18.76;74.67
63006;BME280;53704;52.532;6.426;2022-09-09T11:13:23;100724.09;;;19.46;71.99
63006;BME280;53704;52.532;6.426;2022-09-09T11:15:54;100708.50;;;19.72;72.94
63006;BME280;53704;52.532;6.426;2022-09-09T11:18:25;100710.72;;;20.00;68.89
63006;BME280;53704;52.532;6.426;2022-09-09T11:20:56;100717.47;;;19.98;70.45
63006;BME280;53704;52.532;6.426;2022-09-09T11:23:44;100713.16;;;20.09;69.79
63006;BME280;53704;52.532;6.426;2022-09-09T11:26:20;100718.06;;;20.00;69.88
63006;BME280;53704;52.532;6.426;2022-09-09T11:40:24;100716.56;;;18.98;69.88
63006;BME280;53704;52.532;6.426;2022-09-09T11:43:02;100717.50;;;19.10;71.70
63006;BME280;53704;52.532;6.426;2022-09-09T11:45:30;100714.56;;;19.37;71.46
63006;BME280;53704;52.532;6.426;2022-09-09T11:47:57;100724.16;;;19.40;70.04
63006;BME280;53704;52.532;6.426;2022-09-09T11:52:49;100707.28;;;19.68;70.53
63006;BME280;53704;52.532;6.426;2022-09-09T11:55:29;100716.38;;;19.62;67.65
63006;BME280;53704;52.532;6.426;2022-09-09T12:00:38;100724.13;;;18.96;71.00
63006;BME280;53704;52.532;6.426;2022-09-09T12:03:06;100711.28;;;19.03;74.99
63006;BME280;53704;52.532;6.426;2022-09-09T12:05:51;100714.63;;;19.49;73.75
63006;BME280;53704;52.532;6.426;2022-09-09T12:08:26;100709.81;;;19.88;73.96
63006;BME280;53704;52.532;6.426;2022-09-09T12:10:55;100705.88;;;19.84;72.74
63006;BME280;53704;52.532;6.426;2022-09-09T12:13:25;100699.53;;;19.65;72.83
63006;BME280;53704;52.532;6.426;2022-09-09T12:15:56;100701.59;;;19.69;72.16
63006;BME280;53704;52.532;6.426;2022-09-09T12:18:24;100720.00;;;19.37;72.93
63006;BME280;53704;52.532;6.426;2022-09-09T12:21:19;100711.94;;;18.98;74.63
63006;BME280;53704;52.532;6.426;2022-09-09T12:23:56;100716.94;;;19.02;74.82
63006;BME280;53704;52.532;6.426;2022-09-09T12:29:15;100707.91;;;20.07;73.60
63006;BME280;53704;52.532;6.426;2022-09-09T12:32:06;100701.00;;;20.04;69.45
63006;BME280;53704;52.532;6.426;2022-09-09T12:37:15;100695.47;;;19.93;71.28
63006;BME280;53704;52.532;6.426;2022-09-09T12:39:55;100692.44;;;20.01;69.43
63006;BME280;53704;52.532;6.426;2022-09-09T12:42:21;100689.31;;;19.97;66.28
63006;BME280;53704;52.532;6.426;2022-09-09T12:44:58;100685.81;;;19.71;71.47
63006;BME280;53704;52.532;6.426;2022-09-09T12:47:40;100688.03;;;19.81;69.75
63006;BME280;53704;52.532;6.426;2022-09-09T12:50:24;100702.09;;;19.41;68.30
63006;BME280;53704;52.532;6.426;2022-09-09T12:53:00;100705.41;;;19.25;69.70
63006;BME280;53704;52.532;6.426;2022-09-09T12:55:35;100702.03;;;19.04;72.68
63006;BME280;53704;52.532;6.426;2022-09-09T12:58:03;100708.47;;;18.85;76.43
63006;BME280;53704;52.532;6.426;2022-09-09T13:00:32;100707.53;;;18.66;77.64
63006;BME280;53704;52.532;6.426;2022-09-09T13:03:00;100710.25;;;19.23;76.79
63006;BME280;53704;52.532;6.426;2022-09-09T13:05:38;100712.34;;;19.46;76.00
63006;BME280;53704;52.532;6.426;2022-09-09T13:08:06;100705.13;;;19.33;73.73
63006;BME280;53704;52.532;6.426;2022-09-09T13:10:36;100706.88;;;19.46;76.82
63006;BME280;53704;52.532;6.426;2022-09-09T13:13:13;100699.56;;;18.96;74.53
63006;BME280;53704;52.532;6.426;2022-09-09T13:15:39;100701.47;;;18.95;73.54
63006;BME280;53704;52.532;6.426;2022-09-09T13:18:07;100701.47;;;18.95;72.67
63006;BME280;53704;52.532;6.426;2022-09-09T13:20:36;100693.72;;;19.61;73.23
63006;BME280;53704;52.532;6.426;2022-09-09T13:23:02;100696.47;;;20.59;72.00
63006;BME280;53704;52.532;6.426;2022-09-09T13:25:28;100697.25;;;20.48;70.24
63006;BME280;53704;52.532;6.426;2022-09-09T13:36:14;100678.06;;;20.36;66.48
63006;BME280;53704;52.532;6.426;2022-09-09T13:38:55;100684.38;;;20.06;67.37
63006;BME280;53704;52.532;6.426;2022-09-09T13:41:23;100681.13;;;20.28;67.67
63006;BME280;53704;52.532;6.426;2022-09-09T13:43:50;100675.44;;;19.99;69.61
63006;BME280;53704;52.532;6.426;2022-09-09T13:46:35;100681.41;;;19.89;68.91
63006;BME280;53704;52.532;6.426;2022-09-09T13:51:39;100681.56;;;20.97;68.49
63006;BME280;53704;52.532;6.426;2022-09-09T13:54:05;100678.31;;;20.04;69.53
63006;BME280;53704;52.532;6.426;2022-09-09T13:56:34;100678.97;;;20.18;68.12
63006;BME280;53704;52.532;6.426;2022-09-09T13:59:00;100681.41;;;20.38;69.18
63006;BME280;53704;52.532;6.426;2022-09-09T14:01:27;100672.41;;;20.19;69.17
63006;BME280;53704;52.532;6.426;2022-09-09T14:03:53;100680.13;;;20.10;68.68
63006;BME280;53704;52.532;6.426;2022-09-09T14:06:19;100672.75;;;20.11;69.52
63006;BME280;53704;52.532;6.426;2022-09-09T14:08:44;100674.16;;;20.86;65.13
63006;BME280;53704;52.532;6.426;2022-09-09T14:11:12;100679.41;;;20.87;68.20
63006;BME280;53704;52.532;6.426;2022-09-09T14:13:38;100680.28;;;20.57;67.21
63006;BME280;53704;52.532;6.426;2022-09-09T14:16:03;100672.00;;;20.03;67.20
63006;BME280;53704;52.532;6.426;2022-09-09T14:18:29;100673.28;;;20.19;68.33
63006;BME280;53704;52.532;6.426;2022-09-09T14:20:54;100667.72;;;20.38;67.81
63006;BME280;53704;52.532;6.426;2022-09-09T14:23:20;100674.69;;;21.06;66.23
63006;BME280;53704;52.532;6.426;2022-09-09T14:25:47;100679.19;;;21.36;64.54
63006;BME280;53704;52.532;6.426;2022-09-09T14:28:14;100676.66;;;20.75;66.02
63006;BME280;53704;52.532;6.426;2022-09-09T14:30:41;100685.59;;;20.52;64.44
63006;BME280;53704;52.532;6.426;2022-09-09T14:33:09;100682.22;;;20.08;67.32
63006;BME280;53704;52.532;6.426;2022-09-09T14:35:35;100682.19;;;19.96;68.38
63006;BME280;53704;52.532;6.426;2022-09-09T14:38:02;100677.97;;;20.12;69.60
63006;BME280;53704;52.532;6.426;2022-09-09T14:40:27;100688.78;;;19.88;68.77
63006;BME280;53704;52.532;6.426;2022-09-09T14:42:53;100682.56;;;19.81;68.86
63006;BME280;53704;52.532;6.426;2022-09-09T14:45:18;100683.63;;;19.99;68.26
63006;BME280;53704;52.532;6.426;2022-09-09T14:47:44;100680.38;;;19.53;68.94
63006;BME280;53704;52.532;6.426;2022-09-09T14:50:10;100680.97;;;19.74;69.58
63006;BME280;53704;52.532;6.426;2022-09-09T14:52:37;100693.13;;;19.15;70.67
63006;BME280;53704;52.532;6.426;2022-09-09T14:55:03;100697.75;;;19.33;69.99
63006;BME280;53704;52.532;6.426;2022-09-09T14:57:28;100697.75;;;19.33;73.05
63006;BME280;53704;52.532;6.426;2022-09-09T14:59:54;100694.00;;;19.71;74.32
63006;BME280;53704;52.532;6.426;2022-09-09T15:02:19;100689.44;;;19.03;77.84
63006;BME280;53704;52.532;6.426;2022-09-09T15:04:44;100683.16;;;19.65;76.25
63006;BME280;53704;52.532;6.426;2022-09-09T15:07:11;100680.38;;;20.20;72.79
63006;BME280;53704;52.532;6.426;2022-09-09T15:09:36;100682.13;;;19.22;74.90
63006;BME280;53704;52.532;6.426;2022-09-09T15:12:02;100682.25;;;19.71;76.19